Flight Track Log - Related Links

Times and Time Zones

All times are in EDT time to prevent confusion due to time zone crossing. See the SWA245 flight status page for this flight to view local times or setup timezone preferences in your user account.

Time Position Orientation Groundspeed Altitude Reporting Facility
EDT Latitude Longitude Course Direction KTS MPH feet Rate Location/Type
Fri 06:51:13 PM 30.3053 -97.8633 306° West 283 326 7,800  Level Houston Center
Fri 06:52:15 PM 30.3503 -97.9481 302° West 303 349 10,600 2,129 Climbing Houston Center
Fri 06:53:17 PM 30.4025 -98.0472 301° West 350 403 12,200 2,226 Climbing Houston Center
Fri 06:54:00 PM 30.4938 -98.3578 300° West  Level Estimated
Fri 06:54:19 PM 30.4497 -98.1539 297° West 366 421 15,200  Level Houston Center
Fri 06:55:00 PM 30.5434 -98.4728 337° Northwest  Level Estimated
Fri 06:55:21 PM 30.4864 -98.2711 290° West 381 438 17,800  Level Houston Center
Fri 06:56:23 PM 30.5250 -98.3917 290° West 393 452 20,200 2,177 Climbing Houston Center
Fri 06:57:25 PM 30.5647 -98.5456 287° West 423 487 22,300 2,081 Climbing Houston Center
Fri 06:58:27 PM 30.5864 -98.6842 280° West 432 497 24,500 1,984 Climbing Houston Center
Fri 06:59:29 PM 30.6064 -98.8228 280° West 433 498 26,400 1,645 Climbing Houston Center
Fri 07:00:31 PM 30.6258 -98.9658 279° West 442 509 27,900 1,344 Climbing Houston Center
Fri 07:01:34 PM 30.6447 -99.1136 278° West 454 522 29,200 1,344 Climbing Houston Center
Fri 07:02:36 PM 30.6650 -99.2767 278° West 468 539 30,700 1,694 Climbing Houston Center
Fri 07:03:38 PM 30.6842 -99.4233 279° West 461 531 32,700 1,694 Climbing Houston Center
Fri 07:04:40 PM 30.7311 -99.5561 292° West 451 519 34,200 1,403 Climbing Houston Center
Fri 07:05:42 PM 30.8053 -99.6675 308° West 439 505 35,600 1,306 Climbing Houston Center
Fri 07:06:44 PM 30.8797 -99.7858 306° West 449 517 36,900 1,161 Climbing Houston Center
Fri 07:07:46 PM 30.9689 -99.9231 307° West 444 511 38,000 532 Climbing Houston Center
Fri 07:08:48 PM 31.0428 -100.0408 306° West 446 513 38,000  Level Houston Center
Fri 07:09:50 PM 31.1186 -100.1547 308° West 446 513 38,000  Level Houston Center
Fri 07:10:52 PM 31.1919 -100.2717 306° West 450 518 38,000  Level Houston Center
Fri 07:11:54 PM 31.2636 -100.3856 306° West 437 503 38,000  Level Houston Center
Fri 07:12:57 PM 31.3711 -100.5039 317° Northwest 450 518 38,000  Level Houston Center
Fri 07:13:59 PM 31.4556 -100.6058 314° West 439 505 38,000  Level Houston Center
Fri 07:14:36 PM 31.5031 -100.6636 314° West 428 493 38,000  Level Fort Worth Center
Fri 07:15:36 PM 31.5861 -100.7664 314° West 428 493 38,000  Level Fort Worth Center
Fri 07:16:36 PM 31.6731 -100.8672 315° West 428 493 38,000  Level Fort Worth Center
Fri 07:17:36 PM 31.7622 -100.9708 315° West 438 504 38,000  Level Fort Worth Center
Fri 07:18:36 PM 31.8508 -101.0744 315° West 438 504 38,000  Level Fort Worth Center
Fri 07:19:36 PM 31.9419 -101.1761 317° Northwest 443 510 38,000  Level Fort Worth Center
Fri 07:20:36 PM 32.0264 -101.2775 315° West 448 516 38,000  Level Fort Worth Center
Fri 07:21:36 PM 32.1172 -101.3794 316° Northwest 448 516 38,000  Level Fort Worth Center
Fri 07:22:36 PM 32.2097 -101.4917 314° West 443 510 38,000  Level Fort Worth Center
Fri 07:23:36 PM 32.3003 -101.5914 317° Northwest 443 510 38,000  Level Fort Worth Center
Fri 07:24:36 PM 32.3908 -101.6917 317° Northwest 443 510 38,000  Level Fort Worth Center
Fri 07:25:36 PM 32.4756 -101.7794 319° Northwest 443 510 38,000  Level Fort Worth Center
Fri 07:26:36 PM 32.5661 -101.8772 318° Northwest 443 510 38,000  Level Fort Worth Center
Fri 07:27:36 PM 32.6586 -101.9758 318° Northwest 443 510 38,000  Level Fort Worth Center
Fri 07:28:36 PM 32.7508 -102.0767 317° Northwest 443 510 38,000  Level Fort Worth Center
Fri 07:29:36 PM 32.8364 -102.1850 313° West 448 516 38,000  Level Fort Worth Center
Fri 07:30:36 PM 32.9008 -102.3047 303° West 443 510 38,000  Level Fort Worth Center
Fri 07:31:36 PM 32.9606 -102.4269 300° West 432 497 38,000  Level Fort Worth Center
Fri 07:32:36 PM 33.0347 -102.5572 304° West 432 497 38,000  Level Fort Worth Center
Fri 07:33:36 PM 33.0969 -102.6650 305° West 432 497 38,000  Level Fort Worth Center
Fri 07:34:36 PM 33.1628 -102.7881 303° West 432 497 38,000  Level Fort Worth Center
Fri 07:35:36 PM 33.2286 -102.9036 304° West 432 497 38,000  Level Fort Worth Center
Fri 07:36:49 PM 33.3003 -103.0444 301° West 434 499 38,000  Level Albuquerque Center
Fri 07:37:51 PM 33.3775 -103.1889 303° West 431 496 38,000  Level Albuquerque Center
Fri 07:38:52 PM 33.4419 -103.3111 302° West 434 499 38,000  Level Albuquerque Center
Fri 07:39:54 PM 33.5053 -103.4333 302° West 433 498 38,000  Level Albuquerque Center
Fri 07:40:55 PM 33.5694 -103.5536 303° West 430 495 38,000  Level Albuquerque Center
Fri 07:41:57 PM 33.6419 -103.6839 304° West 425 489 38,000  Level Albuquerque Center
Fri 07:42:59 PM 33.7081 -103.8050 303° West 433 498 38,000  Level Albuquerque Center
Fri 07:44:00 PM 33.7747 -103.9328 302° West 423 487 38,000  Level Albuquerque Center
Fri 07:45:02 PM 33.8364 -104.0522 302° West 422 486 38,000  Level Albuquerque Center
Fri 07:46:03 PM 33.8989 -104.1708 302° West 421 484 38,000  Level Albuquerque Center
Fri 07:47:05 PM 33.9656 -104.2975 302° West 419 482 38,000  Level Albuquerque Center
Fri 07:48:06 PM 34.0217 -104.4064 302° West 421 484 38,000  Level Albuquerque Center
Fri 07:49:08 PM 34.0856 -104.5297 302° West 426 490 38,000  Level Albuquerque Center
Fri 07:50:09 PM 34.1489 -104.6517 302° West 426 490 38,000  Level Albuquerque Center
Fri 07:51:11 PM 34.2108 -104.7728 302° West 421 484 38,000  Level Albuquerque Center
Fri 07:52:13 PM 34.2822 -104.9125 302° West 415 478 38,000  Level Albuquerque Center
Fri 07:53:14 PM 34.3453 -105.0331 302° West 416 479 38,000  Level Albuquerque Center
Fri 07:54:16 PM 34.4067 -105.1528 302° West 415 478 38,000  Level Albuquerque Center
Fri 07:55:17 PM 34.4683 -105.2742 302° West 417 480 38,000  Level Albuquerque Center
Fri 07:56:19 PM 34.5294 -105.3947 302° West 416 479 38,000  Level Albuquerque Center
Fri 07:57:20 PM 34.5908 -105.5150 302° West 415 478 38,000  Level Albuquerque Center
Fri 07:58:22 PM 34.6517 -105.6389 301° West 420 483 38,000  Level Albuquerque Center
Fri 07:59:24 PM 34.7156 -105.7658 302° West 430 495 38,000  Level Albuquerque Center
Fri 08:00:25 PM 34.7869 -105.9067 302° West 439 505 38,000  Level Albuquerque Center
Fri 08:01:27 PM 34.8506 -106.0358 301° West 438 504 38,000  Level Albuquerque Center
Fri 08:02:29 PM 34.9108 -106.1614 300° West 434 499 38,000  Level Albuquerque Center
Fri 08:03:30 PM 34.9719 -106.2831 302° West 427 491 38,000  Level Albuquerque Center
Fri 08:04:32 PM 35.0319 -106.4044 301° West 419 482 38,000  Level Albuquerque Center
Fri 08:05:34 PM 35.0931 -106.5292 301° West 422 486 38,000  Level Albuquerque Center
Fri 08:06:35 PM 35.1619 -106.6692 301° West 428 493 38,000  Level Albuquerque Center
Fri 08:07:38 PM 35.2211 -106.7919 301° West 422 486 38,000  Level Albuquerque Center
Fri 08:08:39 PM 35.2806 -106.9153 301° West 423 487 38,000  Level Albuquerque Center
Fri 08:09:40 PM 35.3456 -107.0478 301° West 422 486 38,000  Level Albuquerque Center
Fri 08:10:42 PM 35.4011 -107.1653 300° West 401 461 38,000  Level Albuquerque Center
Fri 08:11:44 PM 35.4628 -107.2900 301° West 409 471 38,000  Level Albuquerque Center
Fri 08:12:46 PM 35.5158 -107.4033 300° West 402 463 38,000  Level Albuquerque Center
Fri 08:13:47 PM 35.5783 -107.5367 300° West 403 464 38,000  Level Albuquerque Center
Fri 08:14:49 PM 35.6339 -107.6519 301° West 408 470 38,000  Level Albuquerque Center
Fri 08:15:51 PM 35.6881 -107.7692 300° West 410 472 38,000  Level Albuquerque Center
Fri 08:16:53 PM 35.7533 -107.9053 301° West 412 474 38,000  Level Albuquerque Center
Fri 08:17:54 PM 35.8075 -108.0219 300° West 411 473 38,000  Level Albuquerque Center
Fri 08:18:56 PM 35.8714 -108.1603 300° West 414 476 38,000  Level Albuquerque Center
Fri 08:19:58 PM 35.9267 -108.2783 300° West 415 478 38,000  Level Albuquerque Center
Fri 08:21:00 PM 35.9903 -108.4147 300° West 413 475 38,000  Level Albuquerque Center
Fri 08:22:01 PM 36.0467 -108.5353 300° West 408 470 38,000  Level Albuquerque Center
Fri 08:23:03 PM 36.1025 -108.6575 300° West 409 471 38,000  Level Albuquerque Center
Fri 08:24:05 PM 36.1583 -108.7783 300° West 406 467 38,000  Level Albuquerque Center
Fri 08:25:07 PM 36.2200 -108.9117 300° West 405 466 38,000  Level Albuquerque Center
Fri 08:26:08 PM 36.2706 -109.0256 299° West 401 461 38,000  Level Albuquerque Center
Fri 08:27:10 PM 36.3311 -109.1597 299° West 401 461 38,000  Level Albuquerque Center
Fri 08:28:40 PM 36.4106 -109.3333 300° West 403 464 38,000  Level Denver Center
Fri 08:30:00 PM 36.4807 -109.4982 299° West  Level FlightAware Approximate
Fri 08:30:44 PM 36.5211 -109.5822 299° West 397 457 38,000  Level Denver Center
Fri 08:31:58 PM 36.5733 -109.6981 299° West 401 461 38,900 832 Climbing Denver Center
Fri 08:33:01 PM 36.6417 -109.8533 299° West 402 463 39,900 528 Climbing Denver Center
Fri 08:34:03 PM 36.7022 -109.9883 299° West 401 461 40,000 48 Climbing Denver Center
Fri 08:35:05 PM 36.7536 -110.1053 299° West 401 461 40,000  Level Denver Center
Fri 08:36:07 PM 36.8064 -110.2250 299° West 399 459 40,000  Level Denver Center
Fri 08:37:09 PM 36.8592 -110.3461 299° West 397 457 40,000  Level Denver Center
Fri 08:38:11 PM 36.9214 -110.4894 299° West 394 453 40,000  Level Denver Center
Fri 08:39:13 PM 36.9739 -110.6094 299° West 394 453 40,000  Level Denver Center
Fri 08:40:15 PM 37.0258 -110.7281 299° West 391 450 40,000  Level Denver Center
Fri 08:41:16 PM 37.0772 -110.8486 298° West 393 452 40,000  Level Denver Center
Fri 08:42:18 PM 37.1286 -110.9678 298° West 391 450 40,000  Level Denver Center
Fri 08:43:20 PM 37.1803 -111.0897 298° West 395 455 40,000  Level Denver Center
Fri 08:44:22 PM 37.2425 -111.2369 298° West 399 459 40,000  Level Denver Center
Fri 08:45:24 PM 37.2956 -111.3614 298° West 405 466 40,000  Level Denver Center
Fri 08:46:26 PM 37.3489 -111.4875 298° West 409 471 40,000  Level Denver Center
Fri 08:47:28 PM 37.4011 -111.6125 298° West 405 466 40,000  Level Denver Center
Fri 08:48:30 PM 37.4547 -111.7381 298° West 408 470 40,000  Level Denver Center
Fri 08:49:32 PM 37.5064 -111.8644 297° West 408 470 40,000  Level Denver Center
Fri 08:50:34 PM 37.5689 -112.0139 298° West 404 465 40,000  Level Denver Center
Fri 08:51:36 PM 37.6211 -112.1386 298° West 404 465 40,000  Level Denver Center
Fri 08:52:38 PM 37.6733 -112.2639 298° West 406 467 40,000  Level Denver Center
Fri 08:53:43 PM 37.7153 -112.3956 292° West 407 468 40,000  Level Salt Lake Center
Fri 08:54:44 PM 37.7592 -112.5561 289° West 406 467 40,000  Level Salt Lake Center
Fri 08:55:46 PM 37.7967 -112.6889 290° West 407 468 40,000  Level Salt Lake Center
Fri 08:56:48 PM 37.8336 -112.8219 289° West 407 468 40,000  Level Salt Lake Center
Fri 08:57:49 PM 37.8697 -112.9567 289° West 409 471 40,000  Level Salt Lake Center
Fri 08:58:51 PM 37.9061 -113.0925 289° West 412 474 40,000  Level Salt Lake Center
Fri 08:59:53 PM 37.9425 -113.2281 289° West 410 472 40,000  Level Salt Lake Center
Fri 09:00:54 PM 37.9869 -113.3928 289° West 414 476 40,000  Level Salt Lake Center
Fri 09:01:56 PM 38.0236 -113.5289 289° West 411 473 40,000  Level Salt Lake Center
Fri 09:02:57 PM 38.0589 -113.6656 288° West 410 472 40,000  Level Salt Lake Center
Fri 09:03:59 PM 38.0947 -113.8022 288° West 409 471 40,000  Level Salt Lake Center
Fri 09:05:01 PM 38.1311 -113.9386 289° West 410 472 40,000  Level Salt Lake Center
Fri 09:06:02 PM 38.1656 -114.0761 288° West 410 472 40,000  Level Salt Lake Center
Fri 09:07:04 PM 38.1603 -114.2211 267° West 410 472 40,000  Level Salt Lake Center
Fri 09:08:05 PM 38.1578 -114.3919 269° West 406 467 40,000  Level Salt Lake Center
Fri 09:09:07 PM 38.1539 -114.5339 268° West 405 466 40,000  Level Salt Lake Center
Fri 09:10:08 PM 38.1519 -114.6733 269° West 398 458 40,000  Level Salt Lake Center
Fri 09:11:10 PM 38.1486 -114.8133 268° West 398 458 40,000  Level Salt Lake Center
Fri 09:12:11 PM 38.1447 -114.9517 268° West 393 452 40,000  Level Salt Lake Center
Fri 09:13:13 PM 38.1419 -115.0892 269° West 392 451 40,000  Level Salt Lake Center
Fri 09:14:14 PM 38.1372 -115.2264 268° West 390 449 40,000  Level Salt Lake Center
Fri 09:15:15 PM 38.1331 -115.3683 268° West 393 452 40,000  Level Salt Lake Center
Fri 09:16:17 PM 38.1303 -115.5061 269° West 391 450 40,000  Level Salt Lake Center
Fri 09:17:18 PM 38.1239 -115.6744 267° West 395 455 40,000  Level Salt Lake Center
Fri 09:18:20 PM 38.1197 -115.8131 268° West 394 453 40,000  Level Salt Lake Center
Fri 09:19:21 PM 38.1153 -115.9531 268° West 395 455 40,000  Level Salt Lake Center
Fri 09:20:23 PM 38.1111 -116.0922 268° West 396 456 40,000  Level Salt Lake Center
Fri 09:21:24 PM 38.1064 -116.2308 268° West 394 453 40,000  Level Salt Lake Center
Fri 09:22:25 PM 38.1008 -116.3697 267° West 394 453 40,000  Level Salt Lake Center
Fri 09:23:00 PM 38.0978 -116.4519 267° West 392 451 40,000  Level Oakland Center
Fri 09:24:01 PM 38.0933 -116.5919 268° West 396 456 40,000  Level Oakland Center
Fri 09:25:03 PM 38.0872 -116.7317 267° West 397 457 40,000  Level Oakland Center
Fri 09:26:04 PM 38.0817 -116.8708 267° West 395 455 40,000  Level Oakland Center
Fri 09:27:06 PM 38.0761 -117.0125 267° West 398 458 40,000  Level Oakland Center
Fri 09:28:07 PM 38.0692 -117.1569 267° West 400 460 40,000  Level Oakland Center
Fri 09:29:08 PM 38.0619 -117.3053 267° West 406 467 40,000  Level Oakland Center
Fri 09:30:10 PM 38.0567 -117.4464 267° West 398 458 40,000  Level Oakland Center
Fri 09:31:11 PM 38.0503 -117.5831 267° West 389 448 40,000  Level Oakland Center
Fri 09:32:12 PM 38.0436 -117.7214 267° West 391 450 40,000  Level Oakland Center
Fri 09:33:14 PM 38.0353 -117.8853 266° West 387 445 40,000  Level Oakland Center
Fri 09:34:15 PM 38.0292 -118.0228 267° West 388 447 40,000  Level Oakland Center
Fri 09:35:17 PM 38.0217 -118.1589 266° West 388 447 40,000  Level Oakland Center
Fri 09:36:18 PM 38.0139 -118.2947 266° West 387 445 40,000  Level Oakland Center
Fri 09:37:19 PM 38.0072 -118.4325 267° West 389 448 40,000  Level Oakland Center
Fri 09:38:21 PM 37.9994 -118.5711 266° West 392 451 40,000  Level Oakland Center
Fri 09:39:22 PM 37.9922 -118.7100 266° West 396 456 40,000  Level Oakland Center
Fri 09:40:23 PM 37.9850 -118.8483 266° West 394 453 40,000  Level Oakland Center
Fri 09:41:25 PM 37.9769 -118.9889 266° West 398 458 40,000  Level Oakland Center
Fri 09:42:26 PM 37.9681 -119.1286 265° West 399 459 40,000  Level Oakland Center
Fri 09:43:28 PM 37.9586 -119.2692 265° West 400 460 40,000 -488 Level Oakland Center
Fri 09:44:29 PM 37.9472 -119.4375 265° West 399 459 39,000 -934 Descending Oakland Center
Fri 09:45:30 PM 37.9372 -119.5750 265° West 395 455 38,100 -927 Descending Oakland Center
Fri 09:46:32 PM 37.9281 -119.7106 265° West 388 447 37,100 -1,366 Descending Oakland Center
Fri 09:47:33 PM 37.9200 -119.8461 266° West 386 444 35,300 -1,869 Descending Oakland Center
Fri 09:48:34 PM 37.9128 -119.9786 266° West 381 438 33,300 -1,951 Descending Oakland Center
Fri 09:49:36 PM 37.9031 -120.1064 265° West 369 425 31,300 -1,610 Descending Oakland Center
Fri 09:50:37 PM 37.8942 -120.2358 265° West 368 423 30,000 -1,475 Descending Oakland Center
Fri 09:51:38 PM 37.8858 -120.3614 265° West 361 415 28,300 -1,756 Descending Oakland Center
Fri 09:52:40 PM 37.8781 -120.4844 265° West 353 406 26,400 -2,000 Descending Oakland Center
Fri 09:53:41 PM 37.8686 -120.6058 264° West 349 402 24,200 -2,164 Descending Oakland Center
Fri 09:54:42 PM 37.8594 -120.7497 265° West 344 396 22,000 -1,951 Descending Oakland Center
Fri 09:55:44 PM 37.8400 -120.8639 258° West 333 383 20,200 -1,776 Descending Oakland Center
Fri 09:56:20 PM 37.8167 -120.9333 247° West 336 387 19,100 -1,688 Descending Northern Cal TRACON
Fri 09:57:20 PM 37.8000 -121.0333 258° West 338 389 17,500 -1,700 Descending Northern Cal TRACON
Fri 09:58:20 PM 37.7667 -121.1500 250° West 346 398 15,700 -1,750 Descending Northern Cal TRACON
Fri 09:59:20 PM 37.7500 -121.2667 260° West 320 368 14,000 -1,700 Descending Northern Cal TRACON
Fri 10:00:20 PM 37.7167 -121.3667 247° West 310 357 12,300 -1,429 Descending Northern Cal TRACON
Fri 10:01:26 PM 37.7000 -121.4833 260° West 302 348 11,000 -905 Descending Northern Cal TRACON
Fri 10:02:26 PM 37.6833 -121.5833 258° West 297 342 10,400 -1,158 Descending Northern Cal TRACON
Fri 10:03:20 PM 37.6500 -121.6667 243° Southwest 298 343 8,800 -1,789 Descending Northern Cal TRACON
Fri 10:04:20 PM 37.6333 -121.7667 258° West 301 346 7,000 -1,300 Descending Northern Cal TRACON
Fri 10:05:20 PM 37.6167 -121.8667 258° West 274 315 6,200 -950 Descending Northern Cal TRACON
Fri 10:06:20 PM 37.6000 -121.9500 256° West 234 269 5,100 -1,286 Descending Northern Cal TRACON
Fri 10:07:26 PM 37.6000 -122.0333 270° West 222 255 3,500 -1,150 Descending Northern Cal TRACON
Fri 10:08:20 PM 37.6167 -122.0833 293° West 188 216 2,800 -947 Descending Northern Cal TRACON
Fri 10:09:20 PM 37.6500 -122.1333 310° West 141 162 1,700 -900 Descending Northern Cal TRACON
Fri 10:10:20 PM 37.6667 -122.1667 302° West 127 146 1,000 -650 Descending Northern Cal TRACON
Fri 10:11:20 PM 37.6833 -122.2000 302° West 128 147 400 -600 Descending Northern Cal TRACON
Fri 10:14:00 PM 37.7167 -122.2167 270° West  Level FlightAware Approximate

Login

Don't have an account? Register now (free) for customized features, flight alerts, and more!